createdAt,value
2023-03-02T00:01:55.352Z,88.08
2023-03-02T00:04:48.420Z,88.09
2023-03-02T00:07:22.946Z,88.33
2023-03-02T00:09:52.087Z,88.59
2023-03-02T00:12:19.859Z,87.43
2023-03-02T00:14:47.551Z,86.45
2023-03-02T00:17:15.661Z,86.86
2023-03-02T00:19:45.089Z,86.52
2023-03-02T00:22:13.021Z,86.07
2023-03-02T00:24:41.260Z,87.31
2023-03-02T00:27:08.897Z,86.64
2023-03-02T00:29:36.843Z,87.57
2023-03-02T00:32:09.207Z,87.40
2023-03-02T00:34:39.216Z,89.09
2023-03-02T00:37:06.828Z,89.09
2023-03-02T00:39:34.667Z,87.91
2023-03-02T00:42:02.277Z,88.77
2023-03-02T00:44:30.064Z,89.28
2023-03-02T00:46:57.918Z,88.95
2023-03-02T00:49:25.960Z,88.60
2023-03-02T00:51:58.987Z,87.91
2023-03-02T00:54:26.658Z,88.79
2023-03-02T00:56:54.506Z,88.16
2023-03-02T00:59:28.329Z,88.97
2023-03-02T01:02:21.940Z,88.34
2023-03-02T01:04:50.792Z,87.38
2023-03-02T01:07:20.938Z,88.23
2023-03-02T01:09:48.974Z,88.31
2023-03-02T01:12:16.642Z,87.30
2023-03-02T01:14:47.783Z,87.36
2023-03-02T01:17:15.740Z,87.04
2023-03-02T01:19:43.501Z,87.79
2023-03-02T01:22:11.299Z,86.81
2023-03-02T01:24:43.699Z,87.66
2023-03-02T01:27:11.391Z,87.80
2023-03-02T01:29:38.934Z,86.83
2023-03-02T01:32:06.659Z,87.26
2023-03-02T01:34:34.353Z,87.28
2023-03-02T01:37:02.637Z,87.47
2023-03-02T01:39:30.622Z,86.93
2023-03-02T01:41:59.402Z,88.20
2023-03-02T01:44:50.375Z,89.44
2023-03-02T01:47:25.944Z,89.03
2023-03-02T01:50:19.344Z,88.78
2023-03-02T01:52:47.476Z,89.71
2023-03-02T01:55:17.964Z,88.77
2023-03-02T01:57:47.187Z,89.67
2023-03-02T02:00:19.546Z,89.51
2023-03-02T02:02:47.915Z,88.87
2023-03-02T02:05:23.636Z,88.94
2023-03-02T02:07:53.202Z,89.70
2023-03-02T02:10:22.700Z,89.26
2023-03-02T02:12:51.503Z,89.59
2023-03-02T02:15:19.107Z,88.93
2023-03-02T02:17:46.767Z,89.02
2023-03-02T02:20:24.266Z,89.16
2023-03-02T02:22:57.701Z,89.68
2023-03-02T02:25:40.991Z,88.79
2023-03-02T02:28:22.500Z,89.44
2023-03-02T02:30:52.201Z,88.64
2023-03-02T02:33:21.554Z,88.24
2023-03-02T02:35:49.174Z,89.60
2023-03-02T02:38:18.653Z,89.21
2023-03-02T02:40:54.638Z,89.47
2023-03-02T02:43:27.218Z,88.47
2023-03-02T02:45:56.247Z,88.60
2023-03-02T02:48:27.171Z,89.27
2023-03-02T02:51:00.683Z,89.81
2023-03-02T02:53:38.856Z,87.74
2023-03-02T02:56:07.410Z,88.27
2023-03-02T02:58:42.291Z,88.96
2023-03-02T03:01:18.095Z,89.35
2023-03-02T03:04:06.595Z,88.31
2023-03-02T03:06:44.686Z,88.88
2023-03-02T03:09:13.262Z,89.58
2023-03-02T03:11:55.486Z,89.96
2023-03-02T03:14:34.674Z,88.85
2023-03-02T03:17:02.470Z,88.88
2023-03-02T03:19:31.895Z,89.53
2023-03-02T03:22:02.127Z,89.42
2023-03-02T03:24:39.110Z,89.19
2023-03-02T03:27:07.501Z,88.57
2023-03-02T03:29:39.329Z,89.51
2023-03-02T03:32:10.524Z,89.78
2023-03-02T03:34:41.869Z,89.24
2023-03-02T03:37:22.371Z,89.07
2023-03-02T03:39:50.873Z,88.28
2023-03-02T03:42:19.205Z,88.13
2023-03-02T03:44:47.589Z,88.77
2023-03-02T03:47:15.557Z,89.25
2023-03-02T03:49:43.657Z,89.71
2023-03-02T03:52:11.731Z,88.97
2023-03-02T03:54:40.010Z,88.94
2023-03-02T03:57:11.400Z,89.79
2023-03-02T03:59:39.597Z,89.37
2023-03-02T04:02:11.226Z,89.01
2023-03-02T04:04:42.689Z,87.87
2023-03-02T04:07:16.944Z,88.76
2023-03-02T04:09:47.628Z,88.56
2023-03-02T04:12:22.196Z,87.90
2023-03-02T04:14:53.248Z,87.62
2023-03-02T04:17:20.868Z,86.70
2023-03-02T04:19:53.388Z,85.86
2023-03-02T04:22:21.523Z,86.93
2023-03-02T04:24:49.502Z,86.49
2023-03-02T04:27:17.614Z,87.43
2023-03-02T04:29:46.617Z,87.57
2023-03-02T04:32:17.477Z,88.22
2023-03-02T04:34:49.844Z,87.44
2023-03-02T04:37:17.518Z,87.23
2023-03-02T04:39:50.228Z,87.51
2023-03-02T04:42:21.207Z,87.37
2023-03-02T04:44:49.067Z,87.74
2023-03-02T04:47:16.697Z,87.39
2023-03-02T04:49:44.314Z,86.54
2023-03-02T04:52:13.331Z,85.86
2023-03-02T04:54:41.438Z,85.78
2023-03-02T04:57:10.162Z,85.07
2023-03-02T04:59:39.732Z,85.71
2023-03-02T05:02:07.536Z,85.23
2023-03-02T05:04:38.175Z,84.87
2023-03-02T05:07:07.030Z,84.13
2023-03-02T05:09:35.648Z,84.09
2023-03-02T05:12:03.636Z,82.71
2023-03-02T05:14:31.545Z,82.83
2023-03-02T05:16:59.762Z,83.66
2023-03-02T05:19:27.664Z,82.73
2023-03-02T05:21:56.930Z,83.32
2023-03-02T05:24:25.487Z,81.96
2023-03-02T05:26:54.619Z,81.99
2023-03-02T05:29:22.432Z,82.05
2023-03-02T05:31:50.415Z,81.78
2023-03-02T05:34:18.334Z,81.08
2023-03-02T05:36:50.032Z,81.33
2023-03-02T05:39:20.102Z,81.00
2023-03-02T05:41:47.959Z,80.65
2023-03-02T05:44:15.739Z,80.82
2023-03-02T05:46:45.028Z,80.01
2023-03-02T05:49:13.574Z,79.33
2023-03-02T05:51:41.347Z,79.01
2023-03-02T05:54:09.385Z,78.90
2023-03-02T05:56:37.193Z,77.65
2023-03-02T05:59:05.026Z,77.96
2023-03-02T06:01:33.234Z,77.20
2023-03-02T06:04:01.258Z,76.95
2023-03-02T06:06:29.549Z,77.26
2023-03-02T06:08:57.826Z,76.20
2023-03-02T06:11:25.520Z,76.17
2023-03-02T06:13:53.595Z,75.55
2023-03-02T06:16:21.851Z,74.14
2023-03-02T06:18:50.430Z,73.28
2023-03-02T06:21:18.946Z,73.47
2023-03-02T06:23:47.137Z,73.10
2023-03-02T06:26:14.902Z,72.83
2023-03-02T06:28:51.988Z,72.68
2023-03-02T06:31:21.988Z,72.74
2023-03-02T06:33:49.980Z,71.15
2023-03-02T06:36:18.793Z,70.37
2023-03-02T06:38:46.659Z,70.83
2023-03-02T06:41:14.537Z,69.69
2023-03-02T06:43:42.288Z,68.78
2023-03-02T06:46:10.061Z,67.75
2023-03-02T06:48:38.164Z,67.07
2023-03-02T06:51:12.828Z,66.38
2023-03-02T06:53:41.353Z,66.25
2023-03-02T06:56:13.286Z,66.81
2023-03-02T06:58:41.866Z,66.49
2023-03-02T07:04:29.694Z,64.66
2023-03-02T07:06:57.634Z,65.07
2023-03-02T07:12:32.756Z,63.17
2023-03-02T07:15:05.626Z,61.22
2023-03-02T07:17:35.567Z,62.62
2023-03-02T07:20:06.208Z,62.43
2023-03-02T07:22:36.749Z,61.99
2023-03-02T07:25:11.053Z,61.59
2023-03-02T07:27:49.839Z,61.95
2023-03-02T07:30:21.388Z,60.84
2023-03-02T07:32:49.441Z,61.25
2023-03-02T07:35:17.669Z,61.46
2023-03-02T07:37:45.510Z,61.16
2023-03-02T07:40:13.918Z,58.92
2023-03-02T07:42:43.075Z,57.67
2023-03-02T07:45:20.783Z,56.68
2023-03-02T07:47:48.758Z,56.93
2023-03-02T07:50:16.852Z,57.23
2023-03-02T07:52:48.341Z,55.24
2023-03-02T07:55:21.723Z,53.61
2023-03-02T07:57:55.115Z,51.99
2023-03-02T08:00:23.595Z,52.36
2023-03-02T08:03:01.799Z,53.86
2023-03-02T08:05:31.338Z,53.47
2023-03-02T08:08:03.265Z,53.68
2023-03-02T08:10:38.714Z,53.13
2023-03-02T08:13:13.457Z,51.88
2023-03-02T08:15:47.538Z,52.90
2023-03-02T08:18:16.616Z,51.96
2023-03-02T08:20:51.300Z,52.34
2023-03-02T08:23:21.980Z,51.41
2023-03-02T08:25:53.271Z,51.88
2023-03-02T08:28:23.312Z,51.49
2023-03-02T08:31:00.064Z,51.72
2023-03-02T08:33:28.865Z,49.67
2023-03-02T08:36:02.096Z,50.58
2023-03-02T08:38:31.656Z,50.08
2023-03-02T08:40:59.474Z,49.27
2023-03-02T08:43:27.356Z,48.81
2023-03-02T08:45:58.130Z,49.08
2023-03-02T08:48:31.602Z,49.46
2023-03-02T08:51:29.200Z,49.97
2023-03-02T08:54:04.961Z,50.02
2023-03-02T08:56:35.826Z,50.59
2023-03-02T08:59:07.031Z,51.00
2023-03-02T09:01:36.780Z,50.26
2023-03-02T09:04:08.584Z,48.27
2023-03-02T09:06:40.960Z,48.51
2023-03-02T09:09:13.042Z,48.58
2023-03-02T09:11:58.919Z,48.71
2023-03-02T09:14:28.316Z,49.12
2023-03-02T09:17:16.739Z,49.17
2023-03-02T09:19:56.730Z,49.84
2023-03-02T09:22:43.003Z,49.13
2023-03-02T09:25:13.986Z,49.40
2023-03-02T09:27:48.989Z,49.70
2023-03-02T09:30:39.046Z,49.71
2023-03-02T09:33:08.209Z,49.56
2023-03-02T09:35:40.311Z,49.59
2023-03-02T09:38:14.276Z,48.14
2023-03-02T09:41:08.239Z,48.54
2023-03-02T09:43:40.708Z,48.68
2023-03-02T09:46:18.485Z,49.06
2023-03-02T09:49:21.665Z,49.62
2023-03-02T09:52:08.666Z,50.15
2023-03-02T09:54:38.238Z,48.98
2023-03-02T09:57:24.154Z,49.58
2023-03-02T10:00:20.524Z,48.99
2023-03-02T10:03:08.188Z,48.46
2023-03-02T10:05:54.398Z,48.95
2023-03-02T10:08:27.298Z,49.91
2023-03-02T10:11:13.490Z,48.72
2023-03-02T10:13:52.615Z,49.11
2023-03-02T10:16:30.335Z,49.64
2023-03-02T10:19:05.604Z,49.15
2023-03-02T10:21:40.099Z,50.12
2023-03-02T10:24:41.488Z,50.01
2023-03-02T10:27:20.864Z,51.17
2023-03-02T10:30:01.452Z,51.42
2023-03-02T10:32:52.666Z,50.60
2023-03-02T10:35:24.040Z,51.05
2023-03-02T10:37:55.495Z,51.15
2023-03-02T10:40:33.553Z,50.81
2023-03-02T10:43:33.614Z,51.16
2023-03-02T10:46:07.849Z,50.81
2023-03-02T10:48:51.860Z,52.66
2023-03-02T10:51:28.551Z,51.68
2023-03-02T10:54:29.023Z,52.22
2023-03-02T10:57:18.443Z,51.99
2023-03-02T10:59:47.464Z,51.94
2023-03-02T11:02:24.552Z,51.68
2023-03-02T11:04:59.549Z,51.38
2023-03-02T11:07:28.968Z,52.15
2023-03-02T11:13:59.440Z,50.33
2023-03-02T11:16:35.352Z,51.33
2023-03-02T11:19:38.257Z,51.77
2023-03-02T11:22:14.810Z,51.40
2023-03-02T11:24:52.396Z,51.46
2023-03-02T11:27:27.477Z,51.33
2023-03-02T11:30:17.262Z,51.41
2023-03-02T11:32:55.262Z,51.97
2023-03-02T11:36:06.810Z,52.45
2023-03-02T11:38:50.382Z,51.01
2023-03-02T11:41:27.436Z,51.52
2023-03-02T11:43:57.001Z,51.62
2023-03-02T11:46:30.829Z,51.02
2023-03-02T11:49:07.473Z,52.46
2023-03-02T11:51:56.672Z,51.10
2023-03-02T11:54:41.666Z,51.07
2023-03-02T11:57:19.819Z,50.98
2023-03-02T11:59:47.680Z,50.72
2023-03-02T12:02:17.133Z,50.25
2023-03-02T12:04:49.043Z,50.80
2023-03-02T12:07:25.858Z,50.93
2023-03-02T12:10:07.621Z,50.47
2023-03-02T12:12:44.680Z,52.21
2023-03-02T12:15:39.726Z,52.51
2023-03-02T12:18:23.078Z,49.59
2023-03-02T12:21:17.716Z,52.43
2023-03-02T12:23:49.095Z,50.74
2023-03-02T12:26:19.981Z,52.81
2023-03-02T12:29:10.719Z,51.99
2023-03-02T12:31:50.757Z,52.61
2023-03-02T12:34:25.042Z,52.25
2023-03-02T12:36:59.089Z,50.76
2023-03-02T12:39:39.190Z,46.12
2023-03-02T12:42:21.783Z,45.70
2023-03-02T12:45:07.803Z,44.80
2023-03-02T12:47:38.399Z,45.02
2023-03-02T12:50:09.426Z,44.14
2023-03-02T12:52:40.935Z,43.15
2023-03-02T12:55:19.527Z,43.66
2023-03-02T12:57:49.678Z,43.64
2023-03-02T13:00:22.959Z,44.39
2023-03-02T13:02:54.971Z,45.69
2023-03-02T13:05:27.440Z,46.12
2023-03-02T13:08:01.409Z,46.93
2023-03-02T13:10:36.294Z,46.71
2023-03-02T13:13:30.229Z,46.55
2023-03-02T13:16:11.963Z,46.34
2023-03-02T13:18:40.807Z,46.30
2023-03-02T13:21:10.804Z,47.78
2023-03-02T13:23:50.940Z,46.76
2023-03-02T13:26:31.681Z,46.84
2023-03-02T13:29:04.748Z,47.42
2023-03-02T13:31:37.639Z,48.30
2023-03-02T13:34:05.688Z,48.00
2023-03-02T13:36:38.744Z,48.10
2023-03-02T13:39:07.826Z,47.47
2023-03-02T13:41:41.642Z,47.58
2023-03-02T13:44:19.877Z,50.50
2023-03-02T13:46:47.676Z,52.49
2023-03-02T13:49:32.738Z,50.70
2023-03-02T13:52:08.338Z,50.50
2023-03-02T13:54:38.333Z,49.70
2023-03-02T13:57:06.168Z,50.52
2023-03-02T13:59:37.257Z,50.36
2023-03-02T14:02:19.941Z,49.24
2023-03-02T14:04:47.808Z,49.99
2023-03-02T14:07:20.845Z,46.85
2023-03-02T14:09:48.974Z,48.04
2023-03-02T14:12:29.740Z,49.44
2023-03-02T14:15:01.355Z,49.29
2023-03-02T14:17:29.585Z,49.25
2023-03-02T14:19:57.591Z,50.87
2023-03-02T14:22:26.681Z,50.45
2023-03-02T14:24:55.930Z,50.50
2023-03-02T14:27:24.836Z,50.94
2023-03-02T14:29:52.678Z,50.32
2023-03-02T14:32:22.135Z,50.01
2023-03-02T14:34:49.984Z,49.56
2023-03-02T14:37:18.859Z,49.34
2023-03-02T14:39:48.516Z,49.12
2023-03-02T14:42:17.395Z,49.66
2023-03-02T14:44:50.189Z,50.87
2023-03-02T14:47:19.750Z,50.63
2023-03-02T14:49:49.019Z,49.65
2023-03-02T14:52:34.959Z,49.60
2023-03-02T14:55:07.915Z,51.01
2023-03-02T14:57:38.740Z,51.01
2023-03-02T15:00:07.603Z,51.85
2023-03-02T15:02:36.058Z,52.44
2023-03-02T15:05:14.699Z,52.16
2023-03-02T15:07:44.355Z,53.12
2023-03-02T15:10:17.502Z,53.57
2023-03-02T15:12:45.710Z,53.95
2023-03-02T15:15:16.736Z,54.06
2023-03-02T15:17:45.023Z,54.36
2023-03-02T15:20:17.356Z,53.90
2023-03-02T15:22:48.055Z,54.44
2023-03-02T15:25:17.532Z,54.63
2023-03-02T15:27:47.491Z,55.56
2023-03-02T15:30:17.950Z,56.01
2023-03-02T15:32:45.987Z,56.11
2023-03-02T15:35:14.678Z,56.12
2023-03-02T15:37:45.716Z,55.99
2023-03-02T15:40:15.476Z,55.96
2023-03-02T15:42:43.986Z,56.30
2023-03-02T15:45:13.855Z,56.37
2023-03-02T15:47:42.998Z,56.29
2023-03-02T15:50:13.284Z,56.20
2023-03-02T15:52:42.676Z,56.40
2023-03-02T15:55:11.287Z,56.22
2023-03-02T15:57:40.389Z,56.36
2023-03-02T16:00:13.792Z,56.41
2023-03-02T16:02:43.750Z,56.50
2023-03-02T16:05:15.451Z,57.15
2023-03-02T16:07:45.596Z,57.95
2023-03-02T16:10:17.462Z,58.59
2023-03-02T16:12:46.032Z,59.15
2023-03-02T16:15:15.055Z,59.21
2023-03-02T16:17:43.044Z,59.77
2023-03-02T16:20:12.016Z,59.79
2023-03-02T16:22:40.407Z,60.58
2023-03-02T16:25:12.130Z,60.81
2023-03-02T16:27:40.681Z,61.87
2023-03-02T16:30:14.952Z,61.93
2023-03-02T16:32:44.397Z,62.66
2023-03-02T16:35:14.752Z,62.69
2023-03-02T16:37:44.686Z,63.15
2023-03-02T16:40:13.236Z,63.89
2023-03-02T16:42:41.886Z,65.02
2023-03-02T16:45:10.441Z,65.06
2023-03-02T16:47:38.286Z,64.83
2023-03-02T16:50:07.071Z,64.51
2023-03-02T16:52:35.966Z,64.67
2023-03-02T16:55:04.618Z,64.88
2023-03-02T16:57:32.909Z,64.60
2023-03-02T17:00:00.805Z,64.71
2023-03-02T17:02:29.646Z,64.71
2023-03-02T17:05:03.335Z,65.07
2023-03-02T17:07:31.897Z,65.62
2023-03-02T17:10:00.676Z,65.74
2023-03-02T17:12:29.486Z,66.79
2023-03-02T17:14:59.374Z,65.96
2023-03-02T17:17:27.534Z,66.87
2023-03-02T17:19:55.897Z,66.42
2023-03-02T17:22:26.697Z,66.58
2023-03-02T17:24:54.943Z,66.42
2023-03-02T17:27:25.983Z,65.25
2023-03-02T17:29:54.660Z,65.53
2023-03-02T17:32:23.355Z,65.23
2023-03-02T17:34:52.601Z,65.92
2023-03-02T17:37:20.438Z,66.66
2023-03-02T17:39:52.543Z,65.15
2023-03-02T17:42:20.498Z,65.18
2023-03-02T17:44:48.369Z,65.11
2023-03-02T17:47:16.517Z,65.67
2023-03-02T17:49:45.939Z,65.50
2023-03-02T17:52:19.510Z,65.52
2023-03-02T17:54:47.884Z,65.48
2023-03-02T17:57:22.061Z,65.36
2023-03-02T17:59:52.886Z,65.78
2023-03-02T18:02:20.738Z,65.87
2023-03-02T18:04:49.452Z,66.22
2023-03-02T18:07:17.816Z,65.74
2023-03-02T18:09:46.263Z,66.00
2023-03-02T18:12:16.104Z,66.40
2023-03-02T18:14:44.690Z,65.98
2023-03-02T18:17:15.259Z,66.09
2023-03-02T18:19:43.367Z,65.89
2023-03-02T18:22:11.526Z,65.47
2023-03-02T18:24:39.711Z,66.23
2023-03-02T18:27:11.002Z,65.80
2023-03-02T18:29:40.467Z,65.56
2023-03-02T18:32:08.575Z,65.39
2023-03-02T18:34:40.323Z,65.38
2023-03-02T18:37:08.228Z,65.63
2023-03-02T18:39:37.868Z,65.75
2023-03-02T18:42:07.023Z,65.11
2023-03-02T18:44:35.175Z,64.93
2023-03-02T18:47:04.088Z,65.42
2023-03-02T18:49:32.137Z,65.85
2023-03-02T18:52:07.027Z,66.43
2023-03-02T18:54:35.047Z,66.63
2023-03-02T18:57:03.800Z,66.52
2023-03-02T18:59:34.284Z,67.05
2023-03-02T19:02:08.519Z,67.13
2023-03-02T19:04:36.371Z,66.99
2023-03-02T19:07:09.260Z,67.23
2023-03-02T19:09:37.506Z,66.53
2023-03-02T19:12:09.623Z,68.02
2023-03-02T19:14:39.735Z,67.57
2023-03-02T19:17:07.709Z,67.37
2023-03-02T19:19:35.761Z,67.26
2023-03-02T19:22:06.572Z,67.89
2023-03-02T19:24:35.030Z,68.06
2023-03-02T19:27:03.120Z,67.92
2023-03-02T19:29:34.830Z,67.38
2023-03-02T19:32:02.758Z,68.25
2023-03-02T19:34:30.840Z,67.81
2023-03-02T19:36:58.824Z,67.66
2023-03-02T19:39:27.463Z,67.66
2023-03-02T19:41:56.039Z,68.47
2023-03-02T19:44:25.878Z,68.07
2023-03-02T19:46:53.698Z,68.41
2023-03-02T19:49:21.478Z,68.65
2023-03-02T19:51:50.362Z,70.05
2023-03-02T19:54:18.137Z,70.25
2023-03-02T19:56:53.299Z,70.41
2023-03-02T19:59:22.223Z,70.17
2023-03-02T20:01:51.584Z,70.39
2023-03-02T20:04:23.167Z,70.83
2023-03-02T20:06:51.098Z,71.47
2023-03-02T20:09:20.518Z,72.86
2023-03-02T20:11:50.916Z,73.11
2023-03-02T20:14:31.574Z,71.49
2023-03-02T20:17:02.571Z,70.95
2023-03-02T20:19:31.766Z,71.04
2023-03-02T20:21:59.624Z,71.02
2023-03-02T20:24:30.756Z,70.91
2023-03-02T20:26:58.682Z,71.49
2023-03-02T20:29:27.061Z,71.37
2023-03-02T20:31:55.005Z,72.27
2023-03-02T20:34:22.693Z,72.75
2023-03-02T20:36:50.372Z,73.20
2023-03-02T20:39:24.319Z,72.13
2023-03-02T20:41:52.345Z,72.80
2023-03-02T20:44:20.742Z,72.40
2023-03-02T20:46:54.233Z,71.78
2023-03-02T20:49:23.707Z,71.03
2023-03-02T20:51:54.823Z,71.24
2023-03-02T20:54:24.558Z,71.29
2023-03-02T20:56:52.244Z,71.61
2023-03-02T20:59:21.643Z,72.16
2023-03-02T21:01:49.920Z,72.34
2023-03-02T21:04:17.879Z,72.96
2023-03-02T21:06:47.305Z,72.97
2023-03-02T21:09:15.577Z,72.23
2023-03-02T21:11:44.970Z,72.21
2023-03-02T21:14:16.269Z,73.38
2023-03-02T21:16:44.347Z,73.23
2023-03-02T21:19:18.203Z,74.33
2023-03-02T21:21:46.429Z,73.39
2023-03-02T21:24:18.453Z,73.13
2023-03-02T21:26:46.970Z,72.81
2023-03-02T21:29:15.136Z,73.56
2023-03-02T21:31:43.990Z,75.04
2023-03-02T21:34:12.675Z,73.33
2023-03-02T21:36:40.688Z,73.03
2023-03-02T21:39:08.545Z,73.88
2023-03-02T21:41:36.441Z,74.00
2023-03-02T21:44:05.798Z,74.78
2023-03-02T21:46:34.360Z,73.61
2023-03-02T21:49:02.302Z,72.67
2023-03-02T21:51:30.439Z,73.95
2023-03-02T21:53:58.164Z,73.60
2023-03-02T21:56:25.916Z,74.02
2023-03-02T21:58:59.887Z,73.50
2023-03-02T22:01:29.881Z,73.12
2023-03-02T22:03:57.564Z,73.85
2023-03-02T22:06:26.981Z,74.69
2023-03-02T22:08:55.960Z,74.01
2023-03-02T22:11:33.132Z,73.31
2023-03-02T22:14:02.164Z,73.36
2023-03-02T22:16:38.737Z,73.99
2023-03-02T22:19:31.376Z,74.83
2023-03-02T22:22:00.327Z,74.29
2023-03-02T22:24:33.815Z,74.15
2023-03-02T22:27:20.330Z,73.56
2023-03-02T22:29:48.846Z,73.75
2023-03-02T22:32:21.429Z,74.96
2023-03-02T22:34:53.220Z,74.18
2023-03-02T22:37:26.381Z,74.19
2023-03-02T22:39:55.687Z,74.38
2023-03-02T22:42:27.291Z,74.40
2023-03-02T22:45:14.971Z,74.54
2023-03-02T22:47:44.004Z,73.76
2023-03-02T22:50:24.920Z,74.51
2023-03-02T22:52:53.288Z,75.30
2023-03-02T22:55:27.263Z,74.97
2023-03-02T22:57:57.163Z,75.40
2023-03-02T23:00:33.934Z,75.63
2023-03-02T23:03:20.321Z,75.80
2023-03-02T23:05:51.117Z,75.62
2023-03-02T23:08:25.351Z,75.32
2023-03-02T23:10:55.116Z,75.10
2023-03-02T23:13:26.189Z,75.67
2023-03-02T23:15:55.494Z,75.75
2023-03-02T23:18:27.426Z,75.13
2023-03-02T23:20:55.228Z,75.28
2023-03-02T23:23:24.474Z,74.73
2023-03-02T23:25:52.193Z,74.68
2023-03-02T23:28:19.852Z,74.37
2023-03-02T23:30:48.124Z,74.69
2023-03-02T23:33:15.963Z,74.80
2023-03-02T23:35:43.733Z,74.62
2023-03-02T23:38:11.602Z,73.87
2023-03-02T23:40:41.764Z,74.12
2023-03-02T23:43:13.708Z,74.63
2023-03-02T23:45:42.425Z,75.88
2023-03-02T23:48:11.321Z,75.58
2023-03-02T23:50:39.629Z,75.43
2023-03-02T23:53:07.326Z,75.91
2023-03-02T23:55:35.329Z,75.61
2023-03-02T23:58:02.989Z,76.26
